createdAt,value
2017-01-07T00:00:03.155Z,0
2017-01-07T00:01:11.840Z,0
2017-01-07T00:02:20.529Z,0
2017-01-07T00:03:29.227Z,0
2017-01-07T00:04:37.912Z,0
2017-01-07T00:05:46.604Z,0
2017-01-07T00:06:55.302Z,0
2017-01-07T00:08:03.989Z,0
2017-01-07T00:09:12.679Z,0
2017-01-07T00:10:21.369Z,0
2017-01-07T00:11:30.059Z,0
2017-01-07T00:12:38.747Z,0
2017-01-07T00:13:47.430Z,0
2017-01-07T00:14:56.115Z,0
2017-01-07T00:16:04.812Z,0
2017-01-07T00:17:13.498Z,0
2017-01-07T00:18:22.184Z,0
2017-01-07T00:19:30.869Z,0
2017-01-07T00:20:39.556Z,0
2017-01-07T00:21:48.244Z,0
2017-01-07T00:22:56.930Z,0
2017-01-07T00:24:05.621Z,0
2017-01-07T00:25:14.308Z,0
2017-01-07T00:26:23.002Z,0
2017-01-07T00:27:31.700Z,0
2017-01-07T00:28:40.391Z,0
2017-01-07T00:29:49.080Z,0
2017-01-07T00:30:57.766Z,0
2017-01-07T00:32:06.447Z,0
2017-01-07T00:33:15.139Z,0
2017-01-07T00:34:23.824Z,0
2017-01-07T00:35:32.510Z,0
2017-01-07T00:36:41.193Z,0
2017-01-07T00:37:49.878Z,0
2017-01-07T00:38:58.583Z,0
2017-01-07T00:40:07.283Z,0
2017-01-07T00:41:15.974Z,0
2017-01-07T00:42:24.667Z,0
2017-01-07T00:43:33.355Z,0
2017-01-07T00:44:42.042Z,0
2017-01-07T00:45:50.728Z,0
2017-01-07T00:46:59.415Z,0
2017-01-07T00:48:08.112Z,0
2017-01-07T00:49:16.797Z,0
2017-01-07T00:50:25.483Z,0
2017-01-07T00:51:34.177Z,0
2017-01-07T00:52:42.864Z,0
2017-01-07T00:53:51.548Z,0
2017-01-07T00:55:00.328Z,0
2017-01-07T00:56:09.020Z,0
2017-01-07T00:57:17.710Z,0
2017-01-07T00:58:26.426Z,0
2017-01-07T00:59:35.157Z,0
2017-01-07T01:00:43.847Z,0
2017-01-07T01:01:52.538Z,0
2017-01-07T01:03:01.227Z,0
2017-01-07T01:04:09.910Z,0
2017-01-07T01:05:18.597Z,0
2017-01-07T01:06:27.302Z,0
2017-01-07T01:07:35.986Z,0
2017-01-07T01:08:44.678Z,0
2017-01-07T01:09:53.371Z,0
2017-01-07T01:11:02.064Z,0
2017-01-07T01:12:10.757Z,0
2017-01-07T01:13:19.447Z,0
2017-01-07T01:14:28.139Z,0
2017-01-07T01:15:36.827Z,0
2017-01-07T01:16:45.513Z,0
2017-01-07T01:17:54.207Z,0
2017-01-07T01:19:02.895Z,0
2017-01-07T01:20:11.579Z,0
2017-01-07T01:21:20.264Z,0
2017-01-07T01:22:28.955Z,0
2017-01-07T01:23:37.640Z,0
2017-01-07T01:24:46.319Z,0
2017-01-07T01:25:55.004Z,0
2017-01-07T01:27:03.686Z,0
2017-01-07T01:28:12.377Z,0
2017-01-07T01:29:21.062Z,0
2017-01-07T01:30:29.750Z,0
2017-01-07T01:31:38.442Z,0
2017-01-07T01:32:47.129Z,0
2017-01-07T01:33:55.816Z,0
2017-01-07T01:35:04.501Z,0
2017-01-07T01:36:13.186Z,0
2017-01-07T01:37:21.871Z,0
2017-01-07T01:38:30.556Z,0
2017-01-07T01:39:39.239Z,0
2017-01-07T01:40:47.939Z,0
2017-01-07T01:41:56.628Z,0
2017-01-07T01:43:05.319Z,0
2017-01-07T01:44:14.004Z,0
2017-01-07T01:45:22.693Z,0
2017-01-07T01:46:31.382Z,0
2017-01-07T01:47:40.065Z,0
2017-01-07T01:48:48.783Z,0
2017-01-07T01:49:57.468Z,0
2017-01-07T01:51:06.152Z,0
2017-01-07T01:52:14.836Z,0
2017-01-07T01:53:23.521Z,0
2017-01-07T01:54:32.209Z,0
2017-01-07T01:55:40.893Z,0
2017-01-07T01:56:49.576Z,0
2017-01-07T01:57:58.263Z,0
2017-01-07T01:59:06.952Z,0
2017-01-07T02:00:15.637Z,0
2017-01-07T02:01:24.322Z,0
2017-01-07T02:02:33.012Z,0
2017-01-07T02:03:41.703Z,0
2017-01-07T02:04:50.394Z,0
2017-01-07T02:05:59.078Z,0
2017-01-07T02:07:07.763Z,0
2017-01-07T02:08:16.448Z,0
2017-01-07T02:09:25.132Z,0
2017-01-07T02:10:33.818Z,0
2017-01-07T02:11:42.501Z,0
2017-01-07T02:12:51.187Z,0
2017-01-07T02:13:59.873Z,0
2017-01-07T02:15:08.952Z,0
2017-01-07T02:16:17.646Z,0
2017-01-07T02:17:26.331Z,0
2017-01-07T02:18:35.023Z,0
2017-01-07T02:19:43.726Z,0
2017-01-07T02:20:52.410Z,0
2017-01-07T02:22:01.095Z,0
2017-01-07T02:23:09.776Z,0
2017-01-07T02:24:18.463Z,0
2017-01-07T02:25:27.152Z,0
2017-01-07T02:26:35.843Z,0
2017-01-07T02:27:44.525Z,0
2017-01-07T02:28:53.213Z,0
2017-01-07T02:30:01.895Z,0
2017-01-07T02:31:10.581Z,0
2017-01-07T02:32:19.276Z,0
2017-01-07T02:33:27.980Z,0
2017-01-07T02:34:36.672Z,0
2017-01-07T02:35:45.355Z,0
2017-01-07T02:36:54.037Z,0
2017-01-07T02:38:02.719Z,0
2017-01-07T02:39:11.408Z,0
2017-01-07T02:40:20.099Z,0
2017-01-07T02:41:28.787Z,0
2017-01-07T02:42:37.476Z,0
2017-01-07T02:43:46.168Z,0
2017-01-07T02:44:54.855Z,0
2017-01-07T02:46:03.545Z,0
2017-01-07T02:47:12.235Z,0
2017-01-07T02:48:20.917Z,0
2017-01-07T02:49:29.599Z,0
2017-01-07T02:50:38.287Z,0
2017-01-07T02:51:46.980Z,0
2017-01-07T02:52:55.667Z,0
2017-01-07T02:54:04.354Z,0
2017-01-07T02:55:13.037Z,0
2017-01-07T02:56:21.720Z,0
2017-01-07T02:57:30.402Z,0
2017-01-07T02:58:39.091Z,0
2017-01-07T02:59:47.778Z,0
2017-01-07T03:00:56.487Z,0
2017-01-07T03:02:05.174Z,0
2017-01-07T03:03:13.868Z,0
2017-01-07T03:04:22.551Z,0
2017-01-07T03:05:31.245Z,0
2017-01-07T03:06:40.322Z,0
2017-01-07T03:07:49.007Z,0
2017-01-07T03:08:57.699Z,0
2017-01-07T03:10:06.389Z,0
2017-01-07T03:11:15.077Z,0
2017-01-07T03:12:23.766Z,0
2017-01-07T03:13:32.448Z,0
2017-01-07T03:14:41.136Z,0
2017-01-07T03:15:49.827Z,0
2017-01-07T03:16:58.527Z,0
2017-01-07T03:18:07.213Z,0
2017-01-07T03:19:15.897Z,0
2017-01-07T03:20:24.584Z,0
2017-01-07T03:21:33.270Z,0
2017-01-07T03:22:41.953Z,0
2017-01-07T03:23:50.935Z,0
2017-01-07T03:24:59.620Z,0
2017-01-07T03:26:08.304Z,0
2017-01-07T03:27:16.991Z,0
2017-01-07T03:28:25.676Z,0
2017-01-07T03:29:34.720Z,0
2017-01-07T03:30:43.402Z,0
2017-01-07T03:31:52.086Z,0
2017-01-07T03:33:00.810Z,0
2017-01-07T03:34:09.498Z,0
2017-01-07T03:35:18.230Z,0
2017-01-07T03:36:26.913Z,0
2017-01-07T03:37:35.600Z,0
2017-01-07T03:38:44.308Z,0
2017-01-07T03:39:52.999Z,0
2017-01-07T03:41:01.735Z,0
2017-01-07T03:42:10.424Z,0
2017-01-07T03:43:19.113Z,0
2017-01-07T03:44:27.793Z,0
2017-01-07T03:45:36.477Z,0
2017-01-07T03:46:45.255Z,0
2017-01-07T03:47:53.936Z,0
2017-01-07T03:49:02.654Z,0
2017-01-07T03:50:11.368Z,0
2017-01-07T03:51:20.051Z,0
2017-01-07T03:52:28.784Z,0
2017-01-07T03:53:37.476Z,0
2017-01-07T03:54:46.161Z,0
2017-01-07T03:55:54.845Z,0
2017-01-07T03:57:03.528Z,0
2017-01-07T03:58:12.257Z,0
2017-01-07T03:59:20.951Z,0
2017-01-07T04:00:29.653Z,0
2017-01-07T04:01:38.332Z,0
2017-01-07T04:02:47.015Z,0
2017-01-07T04:03:55.756Z,0
2017-01-07T04:05:04.837Z,0
2017-01-07T04:06:13.521Z,0
2017-01-07T04:07:22.211Z,0
2017-01-07T04:08:30.901Z,0
2017-01-07T04:09:44.739Z,0
2017-01-07T04:10:53.421Z,0
2017-01-07T04:12:02.107Z,0
2017-01-07T04:13:10.792Z,0
2017-01-07T04:14:19.476Z,0
2017-01-07T04:15:28.456Z,0
2017-01-07T04:16:37.146Z,0
2017-01-07T04:17:45.833Z,0
2017-01-07T04:18:54.512Z,0
2017-01-07T04:20:03.193Z,0
2017-01-07T04:21:11.927Z,0
2017-01-07T04:22:20.615Z,0
2017-01-07T04:23:29.296Z,0
2017-01-07T04:24:38.011Z,0
2017-01-07T04:25:46.701Z,0
2017-01-07T04:26:55.436Z,0
2017-01-07T04:28:04.119Z,0
2017-01-07T04:29:12.803Z,0
2017-01-07T04:30:21.481Z,0
2017-01-07T04:31:30.166Z,0
2017-01-07T04:32:38.925Z,0
2017-01-07T04:33:47.611Z,0
2017-01-07T04:34:56.302Z,0
2017-01-07T04:36:04.989Z,0
2017-01-07T04:37:13.673Z,0
2017-01-07T04:38:22.407Z,0
2017-01-07T04:39:31.098Z,0
2017-01-07T04:40:39.781Z,0
2017-01-07T04:41:48.462Z,0
2017-01-07T04:42:57.145Z,0
2017-01-07T04:44:05.884Z,0
2017-01-07T04:45:14.572Z,0
2017-01-07T04:46:23.254Z,0
2017-01-07T04:47:31.933Z,0
2017-01-07T04:48:40.621Z,0
2017-01-07T04:49:49.356Z,0
2017-01-07T04:50:58.437Z,0
2017-01-07T04:52:07.127Z,0
2017-01-07T04:53:15.811Z,0
2017-01-07T04:54:24.500Z,0
2017-01-07T04:55:33.233Z,0
2017-01-07T04:56:41.921Z,0
2017-01-07T04:57:50.606Z,0
2017-01-07T04:58:59.286Z,0
2017-01-07T05:00:07.977Z,0
2017-01-07T05:01:16.713Z,0
2017-01-07T05:02:25.400Z,0
2017-01-07T05:03:34.086Z,0
2017-01-07T05:04:42.770Z,0
2017-01-07T05:05:51.466Z,0
2017-01-07T05:07:00.227Z,0
2017-01-07T05:08:09.308Z,0
2017-01-07T05:09:18.015Z,0
2017-01-07T05:10:26.705Z,0
2017-01-07T05:11:35.390Z,0
2017-01-07T05:12:44.127Z,0
2017-01-07T05:13:52.813Z,0
2017-01-07T05:15:01.499Z,0
2017-01-07T05:16:10.181Z,0
2017-01-07T05:17:18.861Z,0
2017-01-07T05:18:27.596Z,0
2017-01-07T05:19:36.277Z,0
2017-01-07T05:20:44.961Z,0
2017-01-07T05:21:53.648Z,0
2017-01-07T05:23:02.328Z,0
2017-01-07T05:24:11.063Z,0
2017-01-07T05:25:19.747Z,0
2017-01-07T05:26:28.441Z,0
2017-01-07T05:27:37.124Z,0
2017-01-07T05:28:45.808Z,0
2017-01-07T05:29:54.536Z,0
2017-01-07T05:31:03.222Z,0
2017-01-07T05:32:11.907Z,0
2017-01-07T05:33:20.592Z,0
2017-01-07T05:34:29.274Z,0
2017-01-07T05:35:38.009Z,0
2017-01-07T05:36:46.693Z,0
2017-01-07T05:37:55.379Z,0
2017-01-07T05:39:04.071Z,0
2017-01-07T05:40:12.754Z,0
2017-01-07T05:41:21.490Z,0
2017-01-07T05:42:30.189Z,0
2017-01-07T05:43:38.875Z,0
2017-01-07T05:44:47.567Z,0
2017-01-07T05:45:56.290Z,0
2017-01-07T05:47:05.416Z,0
2017-01-07T05:48:14.116Z,0
2017-01-07T05:49:22.801Z,0
2017-01-07T05:50:31.542Z,0
2017-01-07T05:51:40.225Z,0
2017-01-07T05:52:48.956Z,0
2017-01-07T05:53:57.639Z,0
2017-01-07T05:55:06.325Z,0
2017-01-07T05:56:15.011Z,0
2017-01-07T05:57:23.706Z,0
2017-01-07T05:58:32.446Z,0
2017-01-07T05:59:41.136Z,0
2017-01-07T06:00:49.819Z,0
2017-01-07T06:01:58.496Z,0
2017-01-07T06:03:07.181Z,0
2017-01-07T06:04:15.941Z,0
2017-01-07T06:05:24.625Z,0
2017-01-07T06:06:33.311Z,0
2017-01-07T06:07:41.997Z,0
2017-01-07T06:08:50.682Z,0
2017-01-07T06:09:59.414Z,0
2017-01-07T06:11:08.096Z,0
2017-01-07T06:12:16.778Z,0
2017-01-07T06:13:25.462Z,0
2017-01-07T06:14:34.152Z,0
2017-01-07T06:15:42.891Z,0
2017-01-07T06:16:51.577Z,0
2017-01-07T06:18:00.298Z,0
2017-01-07T06:19:08.980Z,0
2017-01-07T06:20:17.665Z,0
2017-01-07T06:21:26.350Z,0
2017-01-07T06:22:35.037Z,0
2017-01-07T06:23:43.722Z,0
2017-01-07T06:24:52.413Z,0
2017-01-07T06:26:01.102Z,0
2017-01-07T06:27:09.785Z,0
2017-01-07T06:28:18.492Z,0
2017-01-07T06:29:27.178Z,0
2017-01-07T06:30:35.860Z,0
2017-01-07T06:31:44.547Z,0
2017-01-07T06:32:53.232Z,0
2017-01-07T06:34:01.918Z,0
2017-01-07T06:35:10.607Z,0
2017-01-07T06:36:19.313Z,0
2017-01-07T06:37:27.994Z,0
2017-01-07T06:38:36.678Z,0
2017-01-07T06:39:45.362Z,0
2017-01-07T06:40:54.050Z,0
2017-01-07T06:42:02.731Z,0
2017-01-07T06:43:11.417Z,0
2017-01-07T06:44:20.101Z,0
2017-01-07T06:45:28.781Z,0
2017-01-07T06:46:37.478Z,0
2017-01-07T06:47:46.162Z,0
2017-01-07T06:48:54.841Z,0
2017-01-07T06:50:03.529Z,0
2017-01-07T06:51:12.218Z,0
2017-01-07T06:52:20.903Z,0
2017-01-07T06:53:29.588Z,0
2017-01-07T06:54:38.271Z,0
2017-01-07T06:55:46.959Z,0
2017-01-07T06:56:55.645Z,0
2017-01-07T06:58:04.327Z,0
2017-01-07T06:59:13.009Z,0
2017-01-07T07:00:21.689Z,0
2017-01-07T07:01:30.373Z,0
2017-01-07T07:02:39.057Z,0
2017-01-07T07:03:47.739Z,0
2017-01-07T07:04:56.426Z,0
2017-01-07T07:06:05.110Z,0
2017-01-07T07:07:13.790Z,0
2017-01-07T07:08:22.471Z,0
2017-01-07T07:09:31.152Z,0
2017-01-07T07:10:39.837Z,0
2017-01-07T07:11:48.517Z,0
2017-01-07T07:12:57.208Z,0
2017-01-07T07:14:06.300Z,0
2017-01-07T07:15:15.018Z,0
2017-01-07T07:16:23.701Z,0
2017-01-07T07:17:32.379Z,0
2017-01-07T07:18:41.065Z,0
2017-01-07T07:19:49.768Z,0
2017-01-07T07:20:58.455Z,0
2017-01-07T07:22:07.143Z,0
2017-01-07T07:23:15.825Z,0
2017-01-07T07:24:24.502Z,0
2017-01-07T07:25:33.186Z,0
2017-01-07T07:26:42.271Z,0
2017-01-07T07:27:50.949Z,0
2017-01-07T07:28:59.631Z,0
2017-01-07T07:30:08.315Z,0
2017-01-07T07:31:16.993Z,0
2017-01-07T07:32:25.701Z,0
2017-01-07T07:33:34.381Z,0
2017-01-07T07:34:43.062Z,0
2017-01-07T07:35:51.743Z,0
2017-01-07T07:37:00.426Z,0
2017-01-07T07:38:09.111Z,0
2017-01-07T07:39:17.796Z,0
2017-01-07T07:40:26.477Z,0
2017-01-07T07:41:35.172Z,0
2017-01-07T07:42:43.856Z,0
2017-01-07T07:43:52.537Z,0
2017-01-07T07:45:01.223Z,0
2017-01-07T07:46:09.906Z,0
2017-01-07T07:47:18.603Z,0
2017-01-07T07:48:27.311Z,0
2017-01-07T07:49:35.998Z,0
2017-01-07T07:50:44.687Z,0
2017-01-07T07:51:53.369Z,0
2017-01-07T07:53:02.055Z,0
2017-01-07T07:54:10.739Z,0
2017-01-07T07:55:19.425Z,0
2017-01-07T07:56:28.114Z,0
2017-01-07T07:57:36.796Z,0
2017-01-07T07:58:45.481Z,0
2017-01-07T07:59:54.162Z,0
2017-01-07T08:01:02.848Z,0
2017-01-07T08:02:11.529Z,0
2017-01-07T08:03:20.214Z,0
2017-01-07T08:04:28.895Z,0
2017-01-07T08:05:37.581Z,0
2017-01-07T08:06:46.288Z,5
2017-01-07T08:07:54.969Z,5
2017-01-07T08:09:03.684Z,5
2017-01-07T08:10:12.380Z,5
2017-01-07T08:11:21.066Z,5
2017-01-07T08:12:29.752Z,5
2017-01-07T08:13:38.437Z,5
2017-01-07T08:14:47.123Z,5
2017-01-07T08:15:55.814Z,5
2017-01-07T08:17:04.495Z,5
2017-01-07T08:18:13.177Z,10
2017-01-07T08:19:21.861Z,10
2017-01-07T08:20:30.540Z,10
2017-01-07T08:21:39.227Z,10
2017-01-07T08:22:47.914Z,10
2017-01-07T08:23:56.595Z,10
2017-01-07T08:25:05.280Z,10
2017-01-07T08:26:13.976Z,10
2017-01-07T08:27:22.663Z,10
2017-01-07T08:28:31.353Z,15
2017-01-07T08:29:40.036Z,15
2017-01-07T08:30:48.720Z,15
2017-01-07T08:31:57.401Z,15
2017-01-07T08:33:06.116Z,15
2017-01-07T08:34:14.797Z,15
2017-01-07T08:35:23.507Z,20
2017-01-07T08:36:32.185Z,20
2017-01-07T08:37:40.875Z,20
2017-01-07T08:38:49.949Z,20
2017-01-07T08:39:58.634Z,20
2017-01-07T08:41:07.319Z,20
2017-01-07T08:42:16.007Z,25
2017-01-07T08:43:24.694Z,25
2017-01-07T08:44:33.373Z,25
2017-01-07T08:45:42.064Z,25
2017-01-07T08:46:50.749Z,25
2017-01-07T08:47:59.458Z,30
2017-01-07T08:49:08.142Z,30
2017-01-07T08:50:16.824Z,30
2017-01-07T08:51:25.507Z,30
2017-01-07T08:52:34.187Z,35
2017-01-07T08:53:42.875Z,35
2017-01-07T08:54:51.564Z,35
2017-01-07T08:56:00.245Z,35
2017-01-07T08:57:08.931Z,40
2017-01-07T08:58:17.613Z,40
2017-01-07T08:59:26.296Z,45
2017-01-07T09:00:35.000Z,45
2017-01-07T09:01:43.684Z,45
2017-01-07T09:02:52.364Z,45
2017-01-07T09:04:01.047Z,50
2017-01-07T09:05:09.732Z,50
2017-01-07T09:06:18.415Z,50
2017-01-07T09:07:27.096Z,50
2017-01-07T09:08:35.781Z,55
2017-01-07T09:09:44.460Z,55
2017-01-07T09:10:53.146Z,55
2017-01-07T09:12:01.839Z,55
2017-01-07T09:13:10.545Z,55
2017-01-07T09:14:19.226Z,60
2017-01-07T09:15:27.909Z,60
2017-01-07T09:16:36.596Z,60
2017-01-07T09:17:45.286Z,55
2017-01-07T09:18:53.970Z,60
2017-01-07T09:20:02.655Z,60
2017-01-07T09:21:11.339Z,60
2017-01-07T09:22:20.019Z,65
2017-01-07T09:23:28.701Z,65
2017-01-07T09:24:37.389Z,65
2017-01-07T09:25:46.071Z,70
2017-01-07T09:26:54.759Z,70
2017-01-07T09:28:03.444Z,70
2017-01-07T09:29:12.126Z,70
2017-01-07T09:30:20.809Z,75
2017-01-07T09:31:29.499Z,75
2017-01-07T09:32:38.184Z,75
2017-01-07T09:33:46.873Z,75
2017-01-07T09:34:55.559Z,75
2017-01-07T09:36:04.293Z,75
2017-01-07T09:37:12.979Z,85
2017-01-07T09:38:21.665Z,80
2017-01-07T09:39:30.350Z,80
2017-01-07T09:40:39.047Z,80
2017-01-07T09:41:47.737Z,80
2017-01-07T09:42:56.419Z,85
2017-01-07T09:44:05.110Z,85
2017-01-07T09:45:13.794Z,85
2017-01-07T09:46:22.506Z,90
2017-01-07T09:47:31.195Z,90
2017-01-07T09:48:39.905Z,95
2017-01-07T09:49:48.589Z,95
2017-01-07T09:50:57.273Z,95
2017-01-07T09:52:05.965Z,100
2017-01-07T09:53:14.664Z,100
2017-01-07T09:54:23.343Z,100
2017-01-07T09:55:32.029Z,100
2017-01-07T09:56:40.710Z,100
2017-01-07T09:57:49.391Z,105
2017-01-07T09:58:58.083Z,105
2017-01-07T10:00:06.764Z,100
2017-01-07T10:01:15.447Z,105
2017-01-07T10:02:24.131Z,105
2017-01-07T10:03:32.813Z,105
2017-01-07T10:04:41.499Z,105
2017-01-07T10:05:50.191Z,105
2017-01-07T10:06:58.904Z,105
2017-01-07T10:08:07.587Z,105
2017-01-07T10:09:16.272Z,105
2017-01-07T10:10:24.969Z,110
2017-01-07T10:11:33.657Z,110
2017-01-07T10:12:42.350Z,110
2017-01-07T10:13:51.039Z,110
2017-01-07T10:14:59.726Z,110
2017-01-07T10:16:08.413Z,110
2017-01-07T10:17:17.100Z,110
2017-01-07T10:18:25.787Z,110
2017-01-07T10:19:34.477Z,110
2017-01-07T10:20:43.165Z,110
2017-01-07T10:21:51.861Z,115
2017-01-07T10:23:00.548Z,115
2017-01-07T10:24:09.239Z,115
2017-01-07T10:25:17.920Z,115
2017-01-07T10:26:26.603Z,120
2017-01-07T10:27:35.288Z,120
2017-01-07T10:28:43.970Z,120
2017-01-07T10:29:52.656Z,120
2017-01-07T10:31:01.341Z,120
2017-01-07T10:32:10.027Z,120
2017-01-07T10:33:18.709Z,120
2017-01-07T10:34:27.392Z,125
2017-01-07T10:35:36.078Z,125
2017-01-07T10:36:44.759Z,125
2017-01-07T10:37:53.443Z,125
2017-01-07T10:39:02.124Z,130
2017-01-07T10:40:10.810Z,130
2017-01-07T10:41:19.501Z,130
2017-01-07T10:42:28.194Z,130
2017-01-07T10:43:36.877Z,130
2017-01-07T10:44:45.559Z,135
2017-01-07T10:45:54.243Z,135
2017-01-07T10:47:02.931Z,135
2017-01-07T10:48:11.619Z,135
2017-01-07T10:49:20.308Z,135
2017-01-07T10:50:28.992Z,135
2017-01-07T10:51:37.676Z,135
2017-01-07T10:52:46.384Z,140
2017-01-07T10:53:55.071Z,140
2017-01-07T10:55:03.755Z,140
2017-01-07T10:56:12.441Z,145
2017-01-07T10:57:21.131Z,145
2017-01-07T10:58:29.816Z,145
2017-01-07T10:59:38.501Z,145
2017-01-07T11:00:47.186Z,145
2017-01-07T11:01:55.919Z,145
2017-01-07T11:03:04.616Z,150
2017-01-07T11:04:13.303Z,150
2017-01-07T11:05:22.386Z,150
2017-01-07T11:06:31.079Z,155
2017-01-07T11:07:39.788Z,155
2017-01-07T11:08:48.473Z,160
2017-01-07T11:09:57.162Z,155
2017-01-07T11:11:05.889Z,155
2017-01-07T11:12:14.577Z,150
2017-01-07T11:13:23.263Z,150
2017-01-07T11:14:31.954Z,150
2017-01-07T11:15:40.641Z,150
2017-01-07T11:16:49.332Z,150
2017-01-07T11:17:58.020Z,150
2017-01-07T11:19:06.709Z,150
2017-01-07T11:20:15.417Z,150
2017-01-07T11:21:24.103Z,150
2017-01-07T11:22:32.787Z,155
2017-01-07T11:23:41.472Z,155
2017-01-07T11:24:50.165Z,155
2017-01-07T11:25:59.245Z,155
2017-01-07T11:27:07.934Z,155
2017-01-07T11:28:16.630Z,155
2017-01-07T11:29:25.316Z,150
2017-01-07T11:30:34.000Z,150
2017-01-07T11:31:42.684Z,150
2017-01-07T11:32:51.375Z,150
2017-01-07T11:34:00.061Z,155
2017-01-07T11:35:08.744Z,155
2017-01-07T11:36:17.431Z,155
2017-01-07T11:37:26.127Z,155
2017-01-07T11:38:34.816Z,155
2017-01-07T11:39:43.502Z,155
2017-01-07T11:40:52.190Z,155
2017-01-07T11:42:00.897Z,155
2017-01-07T11:43:09.585Z,155
2017-01-07T11:44:18.264Z,160
2017-01-07T11:45:26.946Z,160
2017-01-07T11:46:35.640Z,165
2017-01-07T11:47:44.325Z,165
2017-01-07T11:48:53.015Z,170
2017-01-07T11:50:01.704Z,170
2017-01-07T11:51:10.392Z,170
2017-01-07T11:52:19.076Z,170
2017-01-07T11:53:27.777Z,175
2017-01-07T11:54:36.468Z,170
2017-01-07T11:55:45.153Z,170
2017-01-07T11:56:53.841Z,170
2017-01-07T11:58:02.529Z,170
2017-01-07T11:59:11.214Z,170
2017-01-07T12:00:19.897Z,175
2017-01-07T12:01:28.586Z,175
2017-01-07T12:02:37.269Z,175
2017-01-07T12:03:45.959Z,180
2017-01-07T12:04:54.643Z,180
2017-01-07T12:06:03.326Z,180
2017-01-07T12:07:12.012Z,180
2017-01-07T12:08:20.727Z,180
2017-01-07T12:09:29.413Z,180
2017-01-07T12:10:38.109Z,180
2017-01-07T12:11:46.795Z,180
2017-01-07T12:12:55.481Z,180
2017-01-07T12:14:04.173Z,180
2017-01-07T12:15:12.858Z,180
2017-01-07T12:16:21.547Z,180
2017-01-07T12:17:30.243Z,180
2017-01-07T12:18:38.928Z,180
2017-01-07T12:19:47.622Z,175
2017-01-07T12:20:56.311Z,175
2017-01-07T12:22:04.999Z,180
2017-01-07T12:23:13.684Z,180
2017-01-07T12:24:22.367Z,180
2017-01-07T12:25:31.059Z,175
2017-01-07T12:26:39.745Z,175
2017-01-07T12:27:48.425Z,175
2017-01-07T12:28:57.117Z,175
2017-01-07T12:30:05.808Z,180
2017-01-07T12:31:14.493Z,185
2017-01-07T12:32:23.186Z,185
2017-01-07T12:33:31.877Z,185
2017-01-07T12:34:40.566Z,180
2017-01-07T12:35:49.257Z,185
2017-01-07T12:36:57.949Z,185
2017-01-07T12:38:06.646Z,190
2017-01-07T12:39:15.337Z,200
2017-01-07T12:40:24.023Z,205
2017-01-07T12:41:32.707Z,210
2017-01-07T12:42:41.396Z,220
2017-01-07T12:43:50.089Z,225
2017-01-07T12:44:58.780Z,230
2017-01-07T12:46:07.481Z,240
2017-01-07T12:47:16.207Z,245
2017-01-07T12:48:24.901Z,240
2017-01-07T12:49:33.596Z,220
2017-01-07T12:50:42.288Z,215
2017-01-07T12:51:50.976Z,205
2017-01-07T12:52:59.670Z,200
2017-01-07T12:54:08.363Z,200
2017-01-07T12:55:17.051Z,210
2017-01-07T12:56:25.741Z,240
2017-01-07T12:57:34.430Z,235
2017-01-07T12:58:43.120Z,235
2017-01-07T12:59:51.809Z,225
2017-01-07T13:01:00.502Z,205
2017-01-07T13:02:09.196Z,185
2017-01-07T13:03:17.883Z,175
2017-01-07T13:04:26.571Z,160
2017-01-07T13:05:35.257Z,145
2017-01-07T13:06:43.943Z,140
2017-01-07T13:07:52.633Z,140
2017-01-07T13:09:01.326Z,145
2017-01-07T13:10:10.042Z,150
2017-01-07T13:11:18.737Z,145
2017-01-07T13:12:27.425Z,140
2017-01-07T13:13:36.114Z,140
2017-01-07T13:14:44.803Z,140
2017-01-07T13:15:53.496Z,145
2017-01-07T13:17:02.184Z,140
2017-01-07T13:18:10.886Z,135
2017-01-07T13:19:19.577Z,135
2017-01-07T13:20:28.284Z,130
2017-01-07T13:21:36.973Z,125
2017-01-07T13:22:45.664Z,125
2017-01-07T13:23:54.352Z,125
2017-01-07T13:25:03.080Z,125
2017-01-07T13:26:11.769Z,120
2017-01-07T13:27:20.457Z,105
2017-01-07T13:28:29.148Z,95
2017-01-07T13:29:37.838Z,90
2017-01-07T13:30:46.533Z,90
2017-01-07T13:31:55.224Z,85
2017-01-07T13:33:03.930Z,80
2017-01-07T13:34:12.614Z,80
2017-01-07T13:35:21.300Z,75
2017-01-07T13:36:29.993Z,75
2017-01-07T13:37:38.680Z,75
2017-01-07T13:38:47.367Z,75
2017-01-07T13:39:56.058Z,75
2017-01-07T13:41:04.744Z,75
2017-01-07T13:42:13.434Z,70
2017-01-07T13:43:22.125Z,70
2017-01-07T13:44:30.811Z,70
2017-01-07T13:45:39.495Z,65
2017-01-07T13:46:48.182Z,65
2017-01-07T13:47:56.873Z,60
2017-01-07T13:49:05.560Z,60
2017-01-07T13:50:14.245Z,55
2017-01-07T13:51:22.932Z,55
2017-01-07T13:52:31.652Z,50
2017-01-07T13:53:40.339Z,50
2017-01-07T13:54:49.047Z,50
2017-01-07T13:55:57.731Z,45
2017-01-07T13:57:06.419Z,45
2017-01-07T13:58:15.107Z,45
2017-01-07T13:59:23.789Z,45
2017-01-07T14:00:32.475Z,45
2017-01-07T14:01:41.165Z,40
2017-01-07T14:02:49.877Z,40
2017-01-07T14:03:58.964Z,35
2017-01-07T14:05:07.648Z,35
2017-01-07T14:06:16.341Z,35
2017-01-07T14:07:25.027Z,30
2017-01-07T14:08:33.718Z,30
2017-01-07T14:09:42.408Z,30
2017-01-07T14:10:51.096Z,30
2017-01-07T14:11:59.780Z,25
2017-01-07T14:13:08.495Z,25
2017-01-07T14:14:17.180Z,25
2017-01-07T14:15:25.862Z,25
2017-01-07T14:16:34.987Z,20
2017-01-07T14:17:43.676Z,20
2017-01-07T14:18:52.358Z,20
2017-01-07T14:20:01.040Z,20
2017-01-07T14:21:09.729Z,20
2017-01-07T14:22:18.415Z,15
2017-01-07T14:23:27.106Z,15
2017-01-07T14:24:35.801Z,15
2017-01-07T14:25:44.483Z,15
2017-01-07T14:26:53.173Z,15
2017-01-07T14:28:01.865Z,15
2017-01-07T14:29:10.554Z,15
2017-01-07T14:30:19.238Z,10
2017-01-07T14:31:27.924Z,10
2017-01-07T14:32:36.639Z,10
2017-01-07T14:33:45.336Z,10
2017-01-07T14:34:54.020Z,10
2017-01-07T14:36:02.705Z,10
2017-01-07T14:37:11.396Z,10
2017-01-07T14:38:20.080Z,5
2017-01-07T14:39:28.770Z,5
2017-01-07T14:40:37.452Z,5
2017-01-07T14:41:46.159Z,5
2017-01-07T14:42:54.846Z,5
2017-01-07T14:44:03.528Z,5
2017-01-07T14:45:12.213Z,5
2017-01-07T14:46:20.893Z,5
2017-01-07T14:47:29.583Z,0
2017-01-07T14:48:38.270Z,0
2017-01-07T14:49:46.959Z,0
2017-01-07T14:50:55.642Z,0
2017-01-07T14:52:04.322Z,0
2017-01-07T14:53:13.007Z,0
2017-01-07T14:54:21.714Z,0
2017-01-07T14:55:30.397Z,0
2017-01-07T14:56:39.090Z,0
2017-01-07T14:57:47.774Z,0
2017-01-07T14:58:56.482Z,0
2017-01-07T15:00:05.162Z,0
2017-01-07T15:01:13.847Z,0
2017-01-07T15:02:22.530Z,0
2017-01-07T15:03:31.214Z,0
2017-01-07T15:04:39.892Z,0
2017-01-07T15:05:48.572Z,0
2017-01-07T15:06:57.261Z,0
2017-01-07T15:08:05.947Z,0
2017-01-07T15:09:14.639Z,0
2017-01-07T15:10:23.322Z,0
2017-01-07T15:11:32.005Z,0
2017-01-07T15:12:40.685Z,0
2017-01-07T15:13:49.388Z,0
2017-01-07T15:14:58.070Z,0
2017-01-07T15:16:06.761Z,0
2017-01-07T15:17:15.451Z,0
2017-01-07T15:18:24.130Z,0
2017-01-07T15:19:32.811Z,0
2017-01-07T15:20:41.506Z,0
2017-01-07T15:21:50.190Z,0
2017-01-07T15:22:58.872Z,0
2017-01-07T15:24:07.553Z,0
2017-01-07T15:25:16.262Z,0
2017-01-07T15:26:24.948Z,0
2017-01-07T15:27:33.636Z,0
2017-01-07T15:28:42.324Z,0
2017-01-07T15:29:51.014Z,0
2017-01-07T15:30:59.700Z,0
2017-01-07T15:32:08.388Z,0
2017-01-07T15:33:17.104Z,0
2017-01-07T15:34:25.792Z,0
2017-01-07T15:35:34.477Z,0
2017-01-07T15:36:43.210Z,0
2017-01-07T15:37:51.891Z,0
2017-01-07T15:39:00.596Z,0
2017-01-07T15:40:09.274Z,0
2017-01-07T15:41:17.961Z,0
2017-01-07T15:42:26.644Z,0
2017-01-07T15:43:35.346Z,0
2017-01-07T15:44:44.031Z,0
2017-01-07T15:45:52.712Z,0
2017-01-07T15:47:01.399Z,0
2017-01-07T15:48:10.082Z,0
2017-01-07T15:49:18.765Z,0
2017-01-07T15:50:27.453Z,0
2017-01-07T15:51:36.137Z,0
2017-01-07T15:52:44.829Z,0
2017-01-07T15:53:53.518Z,0
2017-01-07T15:55:02.200Z,0
2017-01-07T15:56:10.886Z,0
2017-01-07T15:57:19.575Z,0
2017-01-07T15:58:28.258Z,0
2017-01-07T15:59:36.947Z,0
2017-01-07T16:00:45.629Z,0
2017-01-07T16:01:54.309Z,0
2017-01-07T16:03:02.995Z,0
2017-01-07T16:04:11.680Z,0
2017-01-07T16:05:20.367Z,0
2017-01-07T16:06:29.061Z,0
2017-01-07T16:07:37.744Z,0
2017-01-07T16:08:46.426Z,0
2017-01-07T16:09:55.105Z,0
2017-01-07T16:11:04.142Z,0
2017-01-07T16:12:12.825Z,0
2017-01-07T16:13:21.512Z,0
2017-01-07T16:14:30.196Z,0
2017-01-07T16:15:38.903Z,0
2017-01-07T16:16:47.589Z,0
2017-01-07T16:17:56.285Z,0
2017-01-07T16:19:04.992Z,0
2017-01-07T16:20:13.671Z,0
2017-01-07T16:21:22.358Z,0
2017-01-07T16:22:31.042Z,0
2017-01-07T16:23:39.732Z,0
2017-01-07T16:24:48.433Z,0
2017-01-07T16:25:57.115Z,0
2017-01-07T16:27:05.805Z,0
2017-01-07T16:28:14.488Z,0
2017-01-07T16:29:23.183Z,0
2017-01-07T16:30:31.866Z,0
2017-01-07T16:31:40.574Z,0
2017-01-07T16:32:49.255Z,0
2017-01-07T16:33:57.937Z,0